Time;durP1;ratioP1;P1;durP2;ratioP2;P2;SDS_P1;SDS_P2;PMS_P1;PMS_P2;Temp;Humidity;BMP_temperature;BMP_pressure;BME280_temperature;BME280_humidity;BME280_pressure;Samples;Min_cycle;Max_cycle;Signal;HPM_P1;HPM_P2
2022/03/13 00:00:24;;;;;;;18.20;11.00;;;;;;;14.10;24.73;99487.78;338103;29;1135;-83
2022/03/13 00:00:49;;;;;;;21.42;11.45;;;;;;;14.02;25.14;99499.53;338744;29;1040;-82
2022/03/13 00:01:03;;;;;;;18.17;11.30;;;;;;;13.93;25.00;99495.63;338823;29;860;-82
2022/03/13 00:01:18;;;;;;;18.83;11.13;;;;;;;13.96;25.05;99496.31;338654;29;1050;-82
2022/03/13 00:01:32;;;;;;;19.25;11.20;;;;;;;14.03;24.97;99494.25;340789;29;2059;-83
2022/03/13 00:01:45;;;;;;;17.00;10.73;;;;;;;14.01;24.95;99487.41;340069;29;1554;-83
2022/03/13 00:01:57;;;;;;;16.13;10.50;;;;;;;13.97;24.99;99492.78;339834;29;1065;-83
2022/03/13 00:02:15;;;;;;;16.80;10.70;;;;;;;13.98;25.43;99494.47;339677;29;1495;-82
2022/03/13 00:02:27;;;;;;;19.35;11.25;;;;;;;14.00;25.13;99494.38;341878;29;1276;-82
2022/03/13 00:02:40;;;;;;;18.67;11.20;;;;;;;14.03;24.53;99490.78;341490;29;889;-82
2022/03/13 00:02:55;;;;;;;17.45;10.98;;;;;;;14.06;24.49;99486.22;341211;29;1189;-82
2022/03/13 00:03:13;;;;;;;19.23;11.02;;;;;;;14.11;24.57;99489.47;340838;29;1052;-82
2022/03/13 00:03:26;;;;;;;18.85;10.95;;;;;;;14.09;24.42;99487.88;338992;29;1158;-82
2022/03/13 00:03:38;;;;;;;17.17;11.20;;;;;;;14.08;24.38;99491.38;339645;29;1174;-82
2022/03/13 00:03:51;;;;;;;18.17;11.40;;;;;;;14.08;24.64;99491.38;339690;29;1257;-82
2022/03/13 00:04:03;;;;;;;18.27;11.27;;;;;;;14.11;24.47;99488.63;338501;29;1194;-82
2022/03/13 00:04:15;;;;;;;17.95;11.15;;;;;;;14.13;24.41;99490.25;338768;29;1121;-82
2022/03/13 00:04:28;;;;;;;18.10;11.20;;;;;;;14.15;24.30;99495.41;337210;29;1208;-82
2022/03/13 00:04:40;;;;;;;17.17;11.20;;;;;;;14.01;24.20;99487.41;337340;29;1256;-82
2022/03/13 00:04:56;;;;;;;17.95;11.13;;;;;;;13.96;24.71;99488.47;337488;29;1041;-82
2022/03/13 00:05:10;;;;;;;19.30;10.80;;;;;;;13.96;24.43;99493.69;337383;29;1251;-82
2022/03/13 00:05:23;;;;;;;19.30;10.43;;;;;;;13.92;24.12;99494.78;337278;29;1160;-82
2022/03/13 00:05:41;;;;;;;18.95;10.45;;;;;;;13.85;24.42;99490.75;338497;29;1024;-82
2022/03/13 00:05:53;;;;;;;18.23;10.82;;;;;;;13.86;24.56;99488.97;338587;29;942;-82
2022/03/13 00:06:08;;;;;;;17.70;11.05;;;;;;;13.84;24.33;99489.06;338125;29;1097;-82
2022/03/13 00:06:29;;;;;;;17.48;10.82;;;;;;;13.81;24.23;99486.59;338507;29;1231;-82
2022/03/13 00:06:43;;;;;;;20.13;10.55;;;;;;;13.91;24.30;99493.06;338449;29;1244;-82
2022/03/13 00:06:56;;;;;;;19.02;10.57;;;;;;;13.98;24.20;99488.38;338680;29;1156;-83
2022/03/13 00:07:19;;;;;;;17.15;10.45;;;;;;;14.01;24.19;99493.47;339035;29;1060;-82
2022/03/13 00:07:34;;;;;;;15.93;10.10;;;;;;;13.99;24.20;99485.69;340256;29;1356;-82
2022/03/13 00:07:51;;;;;;;15.70;10.15;;;;;;;14.03;24.09;99490.78;339882;29;884;-82
2022/03/13 00:08:16;;;;;;;18.65;10.38;;;;;;;14.01;24.27;99492.63;339369;29;2113;-82
2022/03/13 00:08:31;;;;;;;18.27;11.23;;;;;;;13.97;24.04;99491.94;340941;29;1466;-82
2022/03/13 00:08:49;;;;;;;16.90;10.63;;;;;;;13.98;24.12;99485.75;339763;29;1879;-82
2022/03/13 00:09:02;;;;;;;15.70;10.27;;;;;;;13.98;24.22;99489.25;339677;29;1072;-82
2022/03/13 00:09:21;;;;;;;15.95;10.27;;;;;;;13.84;24.36;99486.44;338318;29;1044;-82
2022/03/13 00:09:33;;;;;;;19.92;10.65;;;;;;;13.93;23.99;99486.00;337497;29;1110;-82
2022/03/13 00:09:49;;;;;;;21.70;11.02;;;;;;;14.01;24.13;99492.63;337301;29;1032;-83
2022/03/13 00:10:01;;;;;;;21.70;10.88;;;;;;;13.97;24.38;99486.69;337371;29;1017;-82
2022/03/13 00:10:17;;;;;;;20.08;10.40;;;;;;;14.03;24.29;99485.56;338703;29;1142;-82
2022/03/13 00:10:30;;;;;;;17.55;10.65;;;;;;;13.66;24.27;99489.94;338785;29;882;-82
2022/03/13 00:10:44;;;;;;;17.35;10.38;;;;;;;13.83;24.55;99483.91;338859;29;1081;-82
2022/03/13 00:11:14;;;;;;;17.33;10.10;;;;;;;13.95;23.81;99489.38;339906;29;1041;-82
2022/03/13 00:11:29;;;;;;;16.10;10.60;;;;;;;14.07;23.81;99489.72;339633;29;1378;-82
2022/03/13 00:11:42;;;;;;;17.73;10.70;;;;;;;14.05;24.00;99488.94;339022;29;1152;-83
2022/03/13 00:11:54;;;;;;;18.73;10.63;;;;;;;14.07;23.84;99493.16;338600;29;1035;-83
2022/03/13 00:12:08;;;;;;;17.38;10.32;;;;;;;14.11;23.74;99492.09;338970;29;1195;-83
2022/03/13 00:12:27;;;;;;;16.95;10.30;;;;;;;14.17;23.90;99490.94;340382;29;1778;-83
2022/03/13 00:12:41;;;;;;;16.60;10.40;;;;;;;14.15;23.90;99496.25;339875;29;1082;-83
2022/03/13 00:12:54;;;;;;;17.30;10.40;;;;;;;14.19;23.55;99492.56;340240;29;1759;-82
2022/03/13 00:13:14;;;;;;;19.02;10.77;;;;;;;14.14;23.50;99489.31;339928;29;1108;-82
2022/03/13 00:13:32;;;;;;;18.60;10.95;;;;;;;14.18;23.63;99490.00;339931;29;1083;-83
2022/03/13 00:13:51;;;;;;;18.02;10.57;;;;;;;14.23;23.54;99495.88;339758;29;1060;-83
2022/03/13 00:14:05;;;;;;;16.98;10.50;;;;;;;14.25;23.32;99491.41;339875;29;1226;-82
2022/03/13 00:14:20;;;;;;;17.17;10.23;;;;;;;14.25;23.46;99488.78;339391;29;1846;-83
2022/03/13 00:14:35;;;;;;;18.45;10.50;;;;;;;14.30;23.37;99492.00;337082;29;1024;-83
2022/03/13 00:14:47;;;;;;;17.05;10.68;;;;;;;14.26;23.69;99493.06;337695;29;744;-83
2022/03/13 00:15:01;;;;;;;16.55;10.50;;;;;;;14.28;23.87;99491.22;338602;29;1056;-83
2022/03/13 00:15:14;;;;;;;17.80;10.75;;;;;;;14.32;23.45;99491.94;337421;29;1403;-82
2022/03/13 00:15:37;;;;;;;18.08;10.85;;;;;;;14.30;23.72;99494.63;339386;28;1354;-84
2022/03/13 00:15:51;;;;;;;18.55;10.80;;;;;;;14.29;23.30;99492.94;338907;29;1077;-83
2022/03/13 00:16:08;;;;;;;19.30;10.80;;;;;;;14.26;23.34;99498.31;339128;29;1376;-83
2022/03/13 00:16:22;;;;;;;19.23;10.98;;;;;;;14.11;23.61;99492.09;339163;29;1454;-83
2022/03/13 00:16:34;;;;;;;18.50;10.88;;;;;;;14.16;23.23;99500.53;340309;29;778;-83
2022/03/13 00:16:48;;;;;;;18.75;11.10;;;;;;;13.93;23.88;99496.44;340055;29;1161;-83
2022/03/13 00:17:01;;;;;;;18.60;11.00;;;;;;;14.01;23.61;99497.84;339732;29;1036;-83
2022/03/13 00:17:16;;;;;;;17.83;10.80;;;;;;;14.03;23.46;99496.84;340470;29;1150;-83
2022/03/13 00:17:29;;;;;;;17.75;10.57;;;;;;;13.98;23.14;99499.69;340193;29;1254;-83
2022/03/13 00:17:42;;;;;;;17.52;10.65;;;;;;;13.91;23.03;99498.28;338481;29;1081;-83
2022/03/13 00:17:54;;;;;;;17.63;10.60;;;;;;;13.95;23.19;99494.59;337701;29;1097;-83
2022/03/13 00:18:08;;;;;;;17.33;10.77;;;;;;;13.96;23.31;99498.06;339473;29;1116;-82
2022/03/13 00:18:20;;;;;;;18.40;10.85;;;;;;;14.02;23.35;99499.53;336792;29;1524;-82
2022/03/13 00:18:32;;;;;;;17.73;10.60;;;;;;;14.00;23.23;99499.59;335953;29;1074;-82
2022/03/13 00:18:48;;;;;;;16.73;10.38;;;;;;;14.01;23.56;99492.63;336019;29;1025;-82
2022/03/13 00:19:01;;;;;;;17.50;10.48;;;;;;;14.14;23.53;99498.94;338757;29;1146;-82
2022/03/13 00:19:13;;;;;;;17.42;10.48;;;;;;;14.18;23.50;99501.34;338775;29;1426;-82
2022/03/13 00:19:25;;;;;;;18.65;10.68;;;;;;;14.19;23.18;99496.94;338160;29;1310;-83
2022/03/13 00:19:38;;;;;;;21.40;10.95;;;;;;;14.21;23.26;99505.56;338669;29;1217;-83
2022/03/13 00:19:50;;;;;;;20.48;10.93;;;;;;;14.23;23.41;99502.88;338481;29;1035;-83
2022/03/13 00:20:04;;;;;;;18.63;10.93;;;;;;;14.22;23.21;99502.00;337311;29;1046;-83
2022/03/13 00:20:17;;;;;;;19.15;10.70;;;;;;;14.25;23.16;99501.03;337165;29;1056;-83
2022/03/13 00:20:30;;;;;;;20.35;10.55;;;;;;;14.29;23.16;99513.84;336316;29;1027;-83
2022/03/13 00:20:43;;;;;;;20.15;10.77;;;;;;;14.30;23.59;99502.47;338560;29;1039;-82
2022/03/13 00:20:55;;;;;;;17.92;10.57;;;;;;;14.18;23.59;99500.47;336397;29;811;-82
2022/03/13 00:21:10;;;;;;;17.13;10.50;;;;;;;13.75;23.88;99502.56;335069;29;1067;-82
2022/03/13 00:21:22;;;;;;;17.52;10.10;;;;;;;13.75;24.17;99505.19;335256;29;1408;-82
2022/03/13 00:21:35;;;;;;;17.88;10.30;;;;;;;13.88;23.79;99503.66;334869;29;1141;-82
2022/03/13 00:21:52;;;;;;;17.42;10.20;;;;;;;13.85;24.02;99498.59;337277;29;1084;-82
2022/03/13 00:22:05;;;;;;;17.60;10.63;;;;;;;13.92;23.78;99500.00;337631;29;1255;-82
2022/03/13 00:22:17;;;;;;;16.38;10.57;;;;;;;13.98;23.65;99507.53;338543;29;1076;-82
2022/03/13 00:22:32;;;;;;;16.33;10.25;;;;;;;13.97;24.00;99508.44;338697;29;1174;-83
2022/03/13 00:22:44;;;;;;;16.65;10.65;;;;;;;14.05;23.56;99509.84;338574;29;1118;-83
2022/03/13 00:22:57;;;;;;;18.05;10.63;;;;;;;13.99;23.55;99506.59;338651;29;1080;-83
2022/03/13 00:23:10;;;;;;;19.92;10.57;;;;;;;13.96;23.87;99506.78;339887;29;1175;-82
2022/03/13 00:23:23;;;;;;;20.15;10.45;;;;;;;13.92;23.69;99510.47;340728;29;1333;-82
2022/03/13 00:23:36;;;;;;;20.20;10.38;;;;;;;13.92;23.46;99507.84;340318;29;799;-83
2022/03/13 00:23:51;;;;;;;16.35;9.98;;;;;;;13.98;23.70;99509.28;338381;29;1104;-82
2022/03/13 00:24:03;;;;;;;15.40;9.95;;;;;;;14.01;23.57;99508.31;337348;29;1194;-82
2022/03/13 00:24:20;;;;;;;17.33;10.65;;;;;;;13.86;23.48;99510.72;337389;29;1180;-82
2022/03/13 00:24:33;;;;;;;18.65;11.18;;;;;;;13.84;24.04;99507.34;337992;29;1027;-82
2022/03/13 00:24:45;;;;;;;17.85;11.07;;;;;;;13.80;24.03;99511.03;338923;29;787;-83
2022/03/13 00:24:59;;;;;;;17.55;11.05;;;;;;;13.75;24.21;99507.81;338642;29;1101;-83
2022/03/13 00:25:12;;;;;;;20.06;10.98;;;;;;;13.74;24.06;99506.09;338612;29;1334;-83
2022/03/13 00:25:25;;;;;;;20.35;10.75;;;;;;;13.81;24.27;99510.13;337351;29;1060;-83
2022/03/13 00:25:37;;;;;;;20.85;10.88;;;;;;;13.81;23.90;99502.28;336130;29;1053;-83
2022/03/13 00:25:49;;;;;;;19.40;10.98;;;;;;;13.76;24.11;99509.47;336928;29;1067;-82
2022/03/13 00:26:03;;;;;;;17.55;10.90;;;;;;;13.76;23.86;99510.34;336560;29;1317;-82
2022/03/13 00:26:16;;;;;;;16.83;10.75;;;;;;;13.75;24.13;99502.56;334690;29;1074;-83
2022/03/13 00:26:29;;;;;;;18.73;10.93;;;;;;;13.66;24.11;99503.88;335213;29;1984;-83
2022/03/13 00:26:41;;;;;;;20.38;11.07;;;;;;;13.25;24.94;99508.38;334501;29;1033;-83
2022/03/13 00:26:54;;;;;;;19.98;10.90;;;;;;;13.39;24.47;99506.00;334785;29;1053;-83
2022/03/13 00:27:07;;;;;;;17.20;10.65;;;;;;;13.39;24.50;99506.00;335188;29;1557;-83
2022/03/13 00:27:20;;;;;;;17.85;10.85;;;;;;;13.34;24.38;99508.84;335996;29;1182;-82
2022/03/13 00:27:34;;;;;;;20.92;11.52;;;;;;;13.34;25.02;99507.97;335054;29;1148;-82
2022/03/13 00:27:47;;;;;;;22.25;11.57;;;;;;;13.26;25.22;99510.91;337375;29;1726;-82
2022/03/13 00:27:58;;;;;;;20.65;11.35;;;;;;;13.29;24.99;99509.94;338322;29;1074;-83
2022/03/13 00:28:12;;;;;;;22.33;12.35;;;;;;;13.36;25.27;99506.13;338645;29;1101;-83
2022/03/13 00:28:24;;;;;;;22.85;12.35;;;;;;;13.46;24.80;99506.56;338557;29;1109;-82
2022/03/13 00:28:39;;;;;;;21.30;12.00;;;;;;;13.53;24.60;99505.34;339600;28;1171;-83
2022/03/13 00:28:51;;;;;;;20.77;12.02;;;;;;;13.56;24.94;99503.47;337580;29;1207;-83
2022/03/13 00:29:03;;;;;;;20.85;12.07;;;;;;;13.56;24.78;99500.84;337688;29;760;-83
2022/03/13 00:29:15;;;;;;;19.65;11.98;;;;;;;13.59;24.68;99503.28;338622;29;1028;-83
2022/03/13 00:29:27;;;;;;;19.73;11.82;;;;;;;13.59;24.52;99508.53;337505;29;1309;-83
2022/03/13 00:29:41;;;;;;;20.40;11.85;;;;;;;13.55;25.04;99506.13;338122;29;1104;-83
2022/03/13 00:29:53;;;;;;;19.15;11.68;;;;;;;13.44;25.40;99498.81;338716;29;1563;-83
2022/03/13 00:30:06;;;;;;;17.83;11.57;;;;;;;13.22;25.90;99508.50;339652;29;1169;-83
2022/03/13 00:30:18;;;;;;;18.45;11.95;;;;;;;13.10;25.87;99505.56;339718;29;1104;-83
2022/03/13 00:30:30;;;;;;;18.23;11.90;;;;;;;13.15;25.40;99503.56;339879;29;1088;-83
2022/03/13 00:30:42;;;;;;;19.38;11.65;;;;;;;13.05;25.41;99501.44;339870;29;1040;-83
2022/03/13 00:30:55;;;;;;;20.98;11.60;;;;;;;13.08;25.39;99501.28;339960;29;1191;-83
2022/03/13 00:31:07;;;;;;;21.27;11.68;;;;;;;13.20;25.49;99503.38;340058;29;1141;-82
2022/03/13 00:31:19;;;;;;;18.85;11.63;;;;;;;13.14;25.46;99507.09;339098;29;759;-82
2022/03/13 00:31:31;;;;;;;17.65;11.55;;;;;;;13.21;25.60;99506.81;338852;29;974;-83
2022/03/13 00:31:43;;;;;;;18.63;11.52;;;;;;;13.24;25.59;99504.06;338742;29;1087;-83
2022/03/13 00:31:58;;;;;;;19.63;11.23;;;;;;;13.36;25.38;99498.28;339751;29;1075;-83
2022/03/13 00:32:10;;;;;;;21.08;11.10;;;;;;;13.33;25.49;99503.69;340008;29;1072;-83
2022/03/13 00:32:22;;;;;;;21.67;11.48;;;;;;;13.27;25.04;99506.53;339897;29;1241;-83
2022/03/13 00:32:34;;;;;;;20.40;11.45;;;;;;;13.26;25.08;99504.84;339921;29;1020;-83
2022/03/13 00:32:46;;;;;;;17.95;11.25;;;;;;;13.27;24.74;99496.09;338831;29;842;-83
2022/03/13 00:33:00;;;;;;;18.63;11.32;;;;;;;13.30;25.20;99501.19;338430;29;1165;-83
2022/03/13 00:33:12;;;;;;;19.13;11.38;;;;;;;13.25;26.01;99503.16;338339;29;1052;-83
2022/03/13 00:33:25;;;;;;;19.50;11.30;;;;;;;13.35;25.71;99504.44;338159;29;1225;-83
2022/03/13 00:33:37;;;;;;;18.10;11.07;;;;;;;13.31;25.07;99501.13;338355;29;1032;-82
2022/03/13 00:33:49;;;;;;;16.92;10.93;;;;;;;13.32;24.86;99505.44;339125;29;1109;-82
2022/03/13 00:34:01;;;;;;;16.42;10.65;;;;;;;13.16;25.35;99505.28;338608;29;1169;-82
2022/03/13 00:34:14;;;;;;;16.67;10.68;;;;;;;13.22;24.88;99508.50;338736;29;1065;-82
2022/03/13 00:34:26;;;;;;;18.23;11.00;;;;;;;13.29;24.98;99502.09;338378;29;1519;-82
2022/03/13 00:34:38;;;;;;;20.02;11.25;;;;;;;13.36;24.92;99507.00;338260;29;1032;-83
2022/03/13 00:34:50;;;;;;;20.10;11.27;;;;;;;13.41;24.95;99500.72;338565;29;1454;-83
2022/03/13 00:35:03;;;;;;;20.00;11.50;;;;;;;13.49;25.44;99496.81;338465;29;1176;-83
2022/03/13 00:35:16;;;;;;;18.92;11.35;;;;;;;13.53;25.00;99502.75;338752;29;1274;-83
2022/03/13 00:35:28;;;;;;;19.08;11.20;;;;;;;13.57;24.96;99499.91;339328;29;1247;-83
2022/03/13 00:35:40;;;;;;;18.88;11.25;;;;;;;13.68;24.55;99496.81;340282;29;778;-83
2022/03/13 00:35:52;;;;;;;19.02;11.10;;;;;;;13.59;25.06;99497.22;338691;29;1024;-83
2022/03/13 00:36:05;;;;;;;19.98;11.60;;;;;;;13.68;24.80;99495.94;338676;29;1206;-83
2022/03/13 00:36:17;;;;;;;19.63;11.82;;;;;;;13.64;24.69;99499.63;339172;29;1227;-83
2022/03/13 00:36:29;;;;;;;19.70;12.07;;;;;;;13.58;24.58;99501.63;338706;29;1828;-82
2022/03/13 00:36:41;;;;;;;19.27;11.88;;;;;;;13.56;24.37;99498.22;339049;29;740;-82
2022/03/13 00:36:53;;;;;;;18.95;11.15;;;;;;;13.53;24.79;99503.59;338562;29;1154;-82
2022/03/13 00:37:05;;;;;;;20.33;11.38;;;;;;;13.47;24.95;99501.25;338912;29;740;-83
2022/03/13 00:37:17;;;;;;;20.10;11.60;;;;;;;13.51;24.99;99500.19;338551;29;1107;-83
2022/03/13 00:37:30;;;;;;;19.95;11.05;;;;;;;13.59;24.63;99499.84;338356;29;1097;-83
2022/03/13 00:37:42;;;;;;;19.08;10.73;;;;;;;13.59;24.96;99500.69;339028;29;755;-83
2022/03/13 00:37:58;;;;;;;18.42;11.13;;;;;;;13.59;24.74;99492.84;338978;29;821;-83
2022/03/13 00:38:10;;;;;;;18.08;11.30;;;;;;;13.61;24.77;99505.00;338799;29;1172;-83
2022/03/13 00:38:25;;;;;;;16.17;11.18;;;;;;;13.58;24.98;99499.00;337670;29;748;-83
2022/03/13 00:38:37;;;;;;;18.20;11.45;;;;;;;13.48;24.76;99497.75;338138;29;1271;-83
2022/03/13 00:38:49;;;;;;;20.73;11.63;;;;;;;13.42;25.15;99500.66;338837;29;1049;-82
2022/03/13 00:39:01;;;;;;;20.05;11.30;;;;;;;13.21;25.50;99501.59;339828;29;1166;-82
2022/03/13 00:39:14;;;;;;;19.13;11.52;;;;;;;13.32;24.86;99499.34;338929;29;1064;-82
2022/03/13 00:39:27;;;;;;;18.23;11.48;;;;;;;13.34;25.24;99502.75;338200;29;1226;-82
2022/03/13 00:39:40;;;;;;;16.88;10.82;;;;;;;13.35;24.94;99509.66;338889;29;1162;-82
2022/03/13 00:39:54;;;;;;;17.27;10.77;;;;;;;13.33;24.94;99501.91;338642;29;1994;-83
2022/03/13 00:40:08;;;;;;;21.58;11.05;;;;;;;13.39;24.87;99508.63;338492;29;1985;-83
2022/03/13 00:40:20;;;;;;;22.77;11.43;;;;;;;13.33;24.85;99506.28;338614;29;1100;-83
2022/03/13 00:40:33;;;;;;;19.48;11.23;;;;;;;13.32;24.62;99507.19;339524;29;1741;-83
2022/03/13 00:40:51;;;;;;;18.70;11.35;;;;;;;13.30;25.07;99498.59;339597;29;1163;-83
2022/03/13 00:41:03;;;;;;;19.67;11.82;;;;;;;13.15;24.83;99503.56;340070;29;851;-83
2022/03/13 00:41:15;;;;;;;19.42;11.70;;;;;;;13.13;25.14;99500.19;338781;29;815;-83
2022/03/13 00:41:28;;;;;;;18.58;11.20;;;;;;;12.96;25.51;99506.16;339585;29;1474;-82
2022/03/13 00:41:41;;;;;;;18.15;10.85;;;;;;;12.94;25.02;99504.56;340868;29;1396;-82
2022/03/13 00:41:53;;;;;;;18.60;11.20;;;;;;;12.96;25.18;99507.94;339474;29;1462;-83
2022/03/13 00:42:05;;;;;;;19.10;11.45;;;;;;;12.97;25.50;99505.25;337456;29;1037;-83
2022/03/13 00:42:20;;;;;;;19.77;11.90;;;;;;;12.91;25.85;99504.69;337160;29;1079;-83
2022/03/13 00:42:33;;;;;;;19.00;11.90;;;;;;;12.96;25.54;99508.78;337588;29;1947;-83
2022/03/13 00:42:46;;;;;;;19.08;11.95;;;;;;;12.78;25.75;99502.63;339614;29;1088;-83
2022/03/13 00:42:58;;;;;;;19.02;11.65;;;;;;;12.77;25.52;99508.72;339557;29;1104;-83
2022/03/13 00:43:10;;;;;;;17.90;11.20;;;;;;;12.84;25.72;99513.66;338068;29;1121;-83
2022/03/13 00:43:24;;;;;;;18.08;11.02;;;;;;;12.88;25.38;99510.03;338432;29;1615;-82
2022/03/13 00:43:37;;;;;;;17.27;10.73;;;;;;;12.91;25.96;99508.13;338011;29;1234;-82
2022/03/13 00:43:49;;;;;;;16.15;10.65;;;;;;;13.01;25.82;99511.16;337104;29;1151;-83
2022/03/13 00:44:01;;;;;;;16.95;10.88;;;;;;;13.04;25.85;99505.84;337162;29;1259;-83
2022/03/13 00:44:13;;;;;;;17.70;11.23;;;;;;;13.08;25.56;99507.38;339826;29;1129;-82
2022/03/13 00:44:25;;;;;;;17.33;11.30;;;;;;;13.09;25.39;99508.22;338424;29;1159;-82
2022/03/13 00:44:37;;;;;;;18.63;11.35;;;;;;;12.99;26.05;99505.19;337269;29;1045;-82
2022/03/13 00:44:50;;;;;;;20.52;11.35;;;;;;;12.99;25.63;99503.41;337089;29;1211;-82
2022/03/13 00:45:02;;;;;;;21.48;11.27;;;;;;;13.15;25.26;99502.72;337572;29;929;-82
2022/03/13 00:45:14;;;;;;;19.50;11.04;;;;;;;13.21;25.26;99504.22;335829;29;1307;-82
2022/03/13 00:45:28;;;;;;;18.98;11.00;;;;;;;13.22;25.05;99498.06;335844;29;1046;-83
2022/03/13 00:45:40;;;;;;;18.33;11.20;;;;;;;13.12;25.38;99506.31;335881;29;1494;-83
2022/03/13 00:45:53;;;;;;;17.55;11.05;;;;;;;12.93;25.60;99508.06;335472;29;1549;-83
2022/03/13 00:46:05;;;;;;;17.60;11.13;;;;;;;12.87;25.62;99508.34;336111;29;792;-82
2022/03/13 00:46:17;;;;;;;18.48;11.07;;;;;;;12.77;25.79;99506.13;336138;29;1169;-82
2022/03/13 00:46:29;;;;;;;19.80;11.25;;;;;;;12.72;26.19;99505.50;335825;29;1504;-83
2022/03/13 00:46:41;;;;;;;19.50;11.38;;;;;;;12.55;25.88;99508.81;336748;29;1071;-83
2022/03/13 00:46:53;;;;;;;20.23;11.52;;;;;;;12.65;25.92;99508.44;337612;29;1122;-83
2022/03/13 00:47:06;;;;;;;19.52;11.20;;;;;;;12.64;25.99;99511.97;336505;29;1224;-83
2022/03/13 00:47:19;;;;;;;18.60;11.00;;;;;;;12.73;26.09;99507.16;337469;29;1197;-83
2022/03/13 00:47:32;;;;;;;19.08;11.15;;;;;;;12.82;26.08;99508.53;338403;29;1061;-83
2022/03/13 00:47:44;;;;;;;20.10;11.60;;;;;;;12.91;25.81;99509.88;338518;29;1922;-83
2022/03/13 00:47:57;;;;;;;20.02;11.27;;;;;;;12.95;25.79;99501.84;339728;29;1559;-83
2022/03/13 00:48:09;;;;;;;19.95;11.07;;;;;;;12.94;25.95;99504.56;339671;29;1269;-83
2022/03/13 00:48:23;;;;;;;20.05;11.35;;;;;;;12.93;26.05;99514.13;340101;29;1043;-83
2022/03/13 00:48:35;;;;;;;18.13;11.35;;;;;;;13.00;25.89;99499.06;339702;29;881;-83
2022/03/13 00:48:47;;;;;;;18.48;11.30;;;;;;;12.92;25.87;99506.38;339660;29;1206;-83
2022/03/13 00:49:00;;;;;;;21.83;11.35;;;;;;;12.94;25.52;99505.38;338976;29;1060;-83
2022/03/13 00:49:12;;;;;;;22.92;11.73;;;;;;;12.79;25.95;99506.91;339711;29;1221;-83
2022/03/13 00:49:24;;;;;;;20.75;11.93;;;;;;;12.96;25.64;99503.56;340791;29;1181;-82
2022/03/13 00:49:36;;;;;;;19.92;11.35;;;;;;;13.05;25.77;99507.50;340089;29;1035;-83
2022/03/13 00:49:49;;;;;;;20.63;11.43;;;;;;;13.08;25.90;99502.16;338107;29;1729;-82
2022/03/13 00:50:02;;;;;;;18.77;11.02;;;;;;;13.08;25.31;99510.00;337331;29;1209;-82
2022/03/13 00:50:14;;;;;;;18.80;11.15;;;;;;;13.11;25.27;99504.63;337660;29;755;-82
2022/03/13 00:50:27;;;;;;;18.50;11.35;;;;;;;13.09;25.61;99508.22;337926;29;1209;-82
2022/03/13 00:50:39;;;;;;;20.30;11.38;;;;;;;13.07;24.98;99500.47;338534;29;1075;-82
2022/03/13 00:50:51;;;;;;;20.67;11.05;;;;;;;13.09;25.72;99506.44;338465;29;1223;-82
2022/03/13 00:51:03;;;;;;;18.35;10.75;;;;;;;13.16;25.69;99502.66;338520;29;1074;-82
2022/03/13 00:51:15;;;;;;;19.02;11.35;;;;;;;13.18;25.51;99503.44;338642;29;1069;-83
2022/03/13 00:51:27;;;;;;;18.70;11.43;;;;;;;13.00;25.85;99504.28;339307;29;1083;-83
2022/03/13 00:51:39;;;;;;;18.75;11.02;;;;;;;12.97;25.89;99500.03;340146;29;735;-83
2022/03/13 00:51:51;;;;;;;20.50;11.38;;;;;;;12.98;25.69;99500.88;338648;29;1848;-82
2022/03/13 00:52:04;;;;;;;20.08;11.45;;;;;;;13.02;25.63;99498.97;340661;29;1582;-82
2022/03/13 00:52:17;;;;;;;20.55;11.68;;;;;;;12.92;25.66;99498.56;338776;29;1122;-82
2022/03/13 00:52:29;;;;;;;20.35;11.50;;;;;;;12.93;25.79;99508.06;339124;29;1122;-82
2022/03/13 00:52:41;;;;;;;19.63;11.48;;;;;;;12.94;25.53;99499.34;338582;29;1073;-82
2022/03/13 00:52:53;;;;;;;19.00;11.50;;;;;;;12.87;26.22;99505.72;338379;29;1035;-82
2022/03/13 00:53:05;;;;;;;18.48;11.45;;;;;;;12.94;26.21;99499.34;338466;29;1131;-82
2022/03/13 00:53:17;;;;;;;19.33;11.52;;;;;;;12.94;25.67;99504.56;338832;29;747;-82
2022/03/13 00:53:29;;;;;;;21.73;11.70;;;;;;;12.99;25.82;99497.34;339730;29;1085;-82
2022/03/13 00:53:43;;;;;;;21.67;11.60;;;;;;;12.89;25.78;99503.91;338991;29;1271;-82
2022/03/13 00:53:55;;;;;;;19.05;11.43;;;;;;;12.96;25.97;99502.72;340180;29;1062;-82
2022/03/13 00:54:08;;;;;;;20.98;11.50;;;;;;;12.98;25.31;99500.88;339078;29;1851;-82
2022/03/13 00:54:20;;;;;;;22.23;11.70;;;;;;;13.01;25.60;99492.91;340025;29;1075;-82
2022/03/13 00:54:33;;;;;;;20.90;11.70;;;;;;;13.07;25.84;99505.69;340084;29;1249;-83
2022/03/13 00:54:46;;;;;;;17.25;11.32;;;;;;;13.10;25.75;99502.94;340534;29;1145;-83
2022/03/13 00:54:58;;;;;;;16.88;10.75;;;;;;;13.00;25.59;99504.28;339852;29;1044;-83
2022/03/13 00:55:10;;;;;;;18.67;10.82;;;;;;;13.04;25.53;99503.22;339607;29;1458;-83
2022/03/13 00:55:22;;;;;;;18.30;10.73;;;;;;;13.08;25.44;99496.94;338677;29;1393;-83
2022/03/13 00:55:35;;;;;;;19.23;10.98;;;;;;;13.08;25.69;99504.78;340050;29;1107;-83
2022/03/13 00:55:47;;;;;;;20.17;11.38;;;;;;;13.07;25.85;99508.28;338787;29;1849;-82
2022/03/13 00:55:59;;;;;;;18.98;11.57;;;;;;;13.06;25.54;99497.91;338458;29;1362;-82
2022/03/13 00:56:11;;;;;;;18.75;11.52;;;;;;;13.01;25.74;99500.72;338726;29;956;-82
2022/03/13 00:56:23;;;;;;;18.25;11.18;;;;;;;13.08;25.77;99502.16;338304;29;1328;-82
2022/03/13 00:56:35;;;;;;;18.33;11.23;;;;;;;13.00;26.08;99499.06;338803;29;1232;-82
2022/03/13 00:56:47;;;;;;;18.75;11.18;;;;;;;13.01;25.62;99499.91;338632;29;1259;-82
2022/03/13 00:57:00;;;;;;;19.23;11.07;;;;;;;13.04;25.90;99503.22;337341;29;1005;-83
2022/03/13 00:57:12;;;;;;;18.92;11.18;;;;;;;13.11;25.58;99496.78;337579;29;1169;-83
2022/03/13 00:57:24;;;;;;;19.35;11.27;;;;;;;13.07;25.42;99497.84;337755;29;1080;-82
2022/03/13 00:57:36;;;;;;;18.30;10.77;;;;;;;13.15;25.36;99495.72;336138;29;1072;-82
2022/03/13 00:57:48;;;;;;;18.80;10.68;;;;;;;13.11;25.66;99495.94;337467;29;1868;-83
2022/03/13 00:58:01;;;;;;;19.23;11.27;;;;;;;13.12;25.25;99498.50;338540;29;1125;-83
2022/03/13 00:58:13;;;;;;;19.40;11.30;;;;;;;13.13;25.52;99501.94;338325;29;1076;-83
2022/03/13 00:58:25;;;;;;;19.02;11.35;;;;;;;12.95;25.57;99498.41;338306;29;1912;-83
2022/03/13 00:58:42;;;;;;;16.98;11.30;;;;;;;12.82;25.82;99495.50;336710;29;1504;-83
2022/03/13 00:58:54;;;;;;;16.85;11.05;;;;;;;12.97;25.68;99496.56;334775;29;1102;-83
2022/03/13 00:59:06;;;;;;;18.55;11.13;;;;;;;12.69;26.04;99505.59;335076;29;1117;-82
2022/03/13 00:59:18;;;;;;;18.88;11.00;;;;;;;12.75;25.67;99505.34;334206;29;1979;-82
2022/03/13 00:59:30;;;;;;;19.38;11.02;;;;;;;12.90;25.39;99497.78;335180;29;844;-83
2022/03/13 00:59:43;;;;;;;18.95;11.02;;;;;;;12.99;25.93;99499.97;336177;29;1017;-83
2022/03/13 00:59:55;;;;;;;19.88;11.43;;;;;;;12.94;26.33;99499.34;338297;29;1161;-83
2022/03/13 01:00:09;;;;;;;21.67;11.85;;;;;;;12.98;25.59;99496.50;336289;29;1160;-83
2022/03/13 01:00:22;;;;;;;21.17;11.65;;;;;;;13.01;25.66;99492.91;336198;29;1182;-82
2022/03/13 01:00:34;;;;;;;18.70;11.07;;;;;;;13.08;25.57;99496.06;336168;29;986;-82
2022/03/13 01:00:46;;;;;;;17.40;11.02;;;;;;;13.16;25.35;99491.38;337430;29;1055;-83
2022/03/13 01:00:59;;;;;;;17.05;10.90;;;;;;;13.19;25.14;99494.69;338291;29;996;-83
2022/03/13 01:01:12;;;;;;;17.18;10.60;;;;;;;13.21;25.02;99496.38;339618;29;1059;-83
2022/03/13 01:01:25;;;;;;;17.73;10.85;;;;;;;13.21;25.62;99496.38;338786;29;1607;-83
2022/03/13 01:01:37;;;;;;;20.08;11.13;;;;;;;13.21;25.32;99496.38;340051;29;1018;-83
2022/03/13 01:01:49;;;;;;;20.05;11.48;;;;;;;13.22;25.60;99498.06;339912;29;1903;-83
2022/03/13 01:02:03;;;;;;;19.95;11.70;;;;;;;13.19;25.88;99497.28;338481;29;1103;-83
2022/03/13 01:02:15;;;;;;;18.63;11.50;;;;;;;13.19;25.43;99496.44;338554;29;1101;-83
2022/03/13 01:02:27;;;;;;;19.17;11.60;;;;;;;13.25;25.30;99498.78;338439;29;1300;-82
2022/03/13 01:02:40;;;;;;;19.35;11.65;;;;;;;13.26;25.36;99491.78;337575;29;1182;-83
2022/03/13 01:02:53;;;;;;;18.33;11.48;;;;;;;13.20;25.48;99495.53;334834;29;1052;-83